sensor_id;sensor_type;location;lat;lon;timestamp;P1;durP1;ratioP1;P2;durP2;ratioP2
61322;SDS011;47203;48.428;11.974;2023-06-22T00:01:09;5.88;;;3.63;;
61322;SDS011;47203;48.428;11.974;2023-06-22T00:03:14;5.65;;;3.60;;
61322;SDS011;47203;48.428;11.974;2023-06-22T00:05:20;7.93;;;3.80;;
61322;SDS011;47203;48.428;11.974;2023-06-22T00:07:25;7.65;;;4.10;;
61322;SDS011;47203;48.428;11.974;2023-06-22T00:09:30;5.15;;;3.15;;
61322;SDS011;47203;48.428;11.974;2023-06-22T00:11:36;7.15;;;3.83;;
61322;SDS011;47203;48.428;11.974;2023-06-22T00:13:41;6.85;;;3.65;;
61322;SDS011;47203;48.428;11.974;2023-06-22T00:15:49;5.32;;;3.33;;
61322;SDS011;47203;48.428;11.974;2023-06-22T00:17:54;6.28;;;3.40;;
61322;SDS011;47203;48.428;11.974;2023-06-22T00:19:58;8.13;;;3.60;;
61322;SDS011;47203;48.428;11.974;2023-06-22T00:22:07;6.88;;;3.83;;
61322;SDS011;47203;48.428;11.974;2023-06-22T00:24:12;8.48;;;3.92;;
61322;SDS011;47203;48.428;11.974;2023-06-22T00:26:17;6.47;;;3.75;;
61322;SDS011;47203;48.428;11.974;2023-06-22T00:28:24;6.60;;;3.70;;
61322;SDS011;47203;48.428;11.974;2023-06-22T00:30:29;5.45;;;3.70;;
61322;SDS011;47203;48.428;11.974;2023-06-22T00:32:37;6.22;;;3.78;;
61322;SDS011;47203;48.428;11.974;2023-06-22T00:34:42;8.25;;;3.72;;
61322;SDS011;47203;48.428;11.974;2023-06-22T00:36:47;5.10;;;3.80;;
61322;SDS011;47203;48.428;11.974;2023-06-22T00:38:53;5.25;;;3.38;;
61322;SDS011;47203;48.428;11.974;2023-06-22T00:40:59;5.78;;;3.58;;
61322;SDS011;47203;48.428;11.974;2023-06-22T00:43:04;5.90;;;3.35;;
61322;SDS011;47203;48.428;11.974;2023-06-22T00:45:10;8.35;;;3.97;;
61322;SDS011;47203;48.428;11.974;2023-06-22T00:47:15;6.80;;;3.58;;
61322;SDS011;47203;48.428;11.974;2023-06-22T00:49:24;6.88;;;3.60;;
61322;SDS011;47203;48.428;11.974;2023-06-22T00:51:29;7.40;;;3.90;;
61322;SDS011;47203;48.428;11.974;2023-06-22T00:53:34;5.95;;;3.60;;
61322;SDS011;47203;48.428;11.974;2023-06-22T00:55:41;7.45;;;3.92;;
61322;SDS011;47203;48.428;11.974;2023-06-22T00:57:48;6.80;;;3.42;;
61322;SDS011;47203;48.428;11.974;2023-06-22T00:59:57;5.95;;;3.58;;
61322;SDS011;47203;48.428;11.974;2023-06-22T01:02:03;5.10;;;2.85;;
61322;SDS011;47203;48.428;11.974;2023-06-22T01:04:09;5.63;;;3.40;;
61322;SDS011;47203;48.428;11.974;2023-06-22T01:06:18;5.70;;;3.70;;
61322;SDS011;47203;48.428;11.974;2023-06-22T01:08:29;5.40;;;3.85;;
61322;SDS011;47203;48.428;11.974;2023-06-22T01:10:41;7.68;;;3.50;;
61322;SDS011;47203;48.428;11.974;2023-06-22T01:12:51;6.35;;;3.60;;
61322;SDS011;47203;48.428;11.974;2023-06-22T01:15:02;5.60;;;3.67;;
61322;SDS011;47203;48.428;11.974;2023-06-22T01:17:14;8.18;;;3.75;;
61322;SDS011;47203;48.428;11.974;2023-06-22T01:19:26;7.15;;;4.13;;
61322;SDS011;47203;48.428;11.974;2023-06-22T01:21:42;6.70;;;3.80;;
61322;SDS011;47203;48.428;11.974;2023-06-22T01:23:51;6.40;;;3.50;;
61322;SDS011;47203;48.428;11.974;2023-06-22T01:26:08;8.38;;;3.67;;
61322;SDS011;47203;48.428;11.974;2023-06-22T01:30:45;4.93;;;3.38;;
61322;SDS011;47203;48.428;11.974;2023-06-22T01:33:05;8.27;;;3.58;;
61322;SDS011;47203;48.428;11.974;2023-06-22T01:35:10;8.63;;;4.13;;
61322;SDS011;47203;48.428;11.974;2023-06-22T01:37:17;8.88;;;3.78;;
61322;SDS011;47203;48.428;11.974;2023-06-22T01:39:25;7.95;;;3.42;;
61322;SDS011;47203;48.428;11.974;2023-06-22T01:41:37;9.95;;;4.43;;
61322;SDS011;47203;48.428;11.974;2023-06-22T01:43:46;7.28;;;4.32;;
61322;SDS011;47203;48.428;11.974;2023-06-22T01:45:54;4.68;;;2.95;;
61322;SDS011;47203;48.428;11.974;2023-06-22T01:48:00;5.97;;;3.53;;
61322;SDS011;47203;48.428;11.974;2023-06-22T01:50:05;4.72;;;3.35;;
61322;SDS011;47203;48.428;11.974;2023-06-22T01:52:11;7.00;;;3.85;;
61322;SDS011;47203;48.428;11.974;2023-06-22T01:54:16;6.60;;;4.38;;
61322;SDS011;47203;48.428;11.974;2023-06-22T01:56:21;7.55;;;3.58;;
61322;SDS011;47203;48.428;11.974;2023-06-22T01:58:27;6.30;;;4.00;;
61322;SDS011;47203;48.428;11.974;2023-06-22T02:00:37;9.15;;;3.80;;
61322;SDS011;47203;48.428;11.974;2023-06-22T02:02:47;5.38;;;3.55;;
61322;SDS011;47203;48.428;11.974;2023-06-22T02:05:02;7.28;;;4.32;;
61322;SDS011;47203;48.428;11.974;2023-06-22T02:07:12;6.70;;;3.70;;
61322;SDS011;47203;48.428;11.974;2023-06-22T02:09:18;5.95;;;3.75;;
61322;SDS011;47203;48.428;11.974;2023-06-22T02:11:28;8.73;;;4.13;;
61322;SDS011;47203;48.428;11.974;2023-06-22T02:13:34;6.85;;;3.63;;
61322;SDS011;47203;48.428;11.974;2023-06-22T02:15:47;6.50;;;3.67;;
61322;SDS011;47203;48.428;11.974;2023-06-22T02:17:52;5.25;;;3.47;;
61322;SDS011;47203;48.428;11.974;2023-06-22T02:19:58;7.25;;;3.83;;
61322;SDS011;47203;48.428;11.974;2023-06-22T02:22:03;6.30;;;3.45;;
61322;SDS011;47203;48.428;11.974;2023-06-22T02:24:08;7.20;;;3.78;;
61322;SDS011;47203;48.428;11.974;2023-06-22T02:26:13;6.43;;;3.67;;
61322;SDS011;47203;48.428;11.974;2023-06-22T02:28:22;8.90;;;3.47;;
61322;SDS011;47203;48.428;11.974;2023-06-22T02:30:27;6.97;;;4.25;;
61322;SDS011;47203;48.428;11.974;2023-06-22T02:32:36;6.40;;;3.83;;
61322;SDS011;47203;48.428;11.974;2023-06-22T02:34:44;8.68;;;3.90;;
61322;SDS011;47203;48.428;11.974;2023-06-22T02:36:50;7.25;;;4.05;;
61322;SDS011;47203;48.428;11.974;2023-06-22T02:38:55;4.53;;;3.83;;
61322;SDS011;47203;48.428;11.974;2023-06-22T02:41:04;8.00;;;4.15;;
61322;SDS011;47203;48.428;11.974;2023-06-22T02:43:09;8.45;;;4.88;;
61322;SDS011;47203;48.428;11.974;2023-06-22T02:45:14;6.95;;;4.10;;
61322;SDS011;47203;48.428;11.974;2023-06-22T02:47:19;6.45;;;3.97;;
61322;SDS011;47203;48.428;11.974;2023-06-22T02:49:27;6.43;;;3.95;;
61322;SDS011;47203;48.428;11.974;2023-06-22T02:51:32;8.75;;;4.32;;
61322;SDS011;47203;48.428;11.974;2023-06-22T02:53:38;8.48;;;4.35;;
61322;SDS011;47203;48.428;11.974;2023-06-22T02:55:48;7.40;;;4.05;;
61322;SDS011;47203;48.428;11.974;2023-06-22T02:57:53;6.25;;;4.68;;
61322;SDS011;47203;48.428;11.974;2023-06-22T03:00:05;8.68;;;4.57;;
61322;SDS011;47203;48.428;11.974;2023-06-22T03:02:20;7.22;;;4.78;;
61322;SDS011;47203;48.428;11.974;2023-06-22T03:04:27;8.70;;;4.60;;
61322;SDS011;47203;48.428;11.974;2023-06-22T03:06:33;8.45;;;4.95;;
61322;SDS011;47203;48.428;11.974;2023-06-22T03:08:38;9.30;;;5.30;;
61322;SDS011;47203;48.428;11.974;2023-06-22T03:10:44;8.80;;;5.32;;
61322;SDS011;47203;48.428;11.974;2023-06-22T03:12:49;7.25;;;4.68;;
61322;SDS011;47203;48.428;11.974;2023-06-22T03:14:54;8.32;;;5.10;;
61322;SDS011;47203;48.428;11.974;2023-06-22T03:16:59;8.13;;;4.97;;
61322;SDS011;47203;48.428;11.974;2023-06-22T03:19:05;9.45;;;5.30;;
61322;SDS011;47203;48.428;11.974;2023-06-22T03:21:12;7.30;;;5.30;;
61322;SDS011;47203;48.428;11.974;2023-06-22T03:23:18;10.10;;;4.88;;
61322;SDS011;47203;48.428;11.974;2023-06-22T03:25:23;8.20;;;5.05;;
61322;SDS011;47203;48.428;11.974;2023-06-22T03:27:28;7.88;;;5.07;;
61322;SDS011;47203;48.428;11.974;2023-06-22T03:29:33;8.77;;;5.38;;
61322;SDS011;47203;48.428;11.974;2023-06-22T03:31:39;9.65;;;5.40;;
61322;SDS011;47203;48.428;11.974;2023-06-22T03:33:45;8.95;;;5.93;;
61322;SDS011;47203;48.428;11.974;2023-06-22T03:35:50;10.20;;;5.40;;
61322;SDS011;47203;48.428;11.974;2023-06-22T03:37:58;7.80;;;5.18;;
61322;SDS011;47203;48.428;11.974;2023-06-22T03:40:05;8.63;;;5.07;;
61322;SDS011;47203;48.428;11.974;2023-06-22T03:42:11;6.65;;;4.88;;
61322;SDS011;47203;48.428;11.974;2023-06-22T03:44:16;10.30;;;5.63;;
61322;SDS011;47203;48.428;11.974;2023-06-22T03:46:21;8.23;;;5.15;;
61322;SDS011;47203;48.428;11.974;2023-06-22T03:48:26;11.70;;;5.55;;
61322;SDS011;47203;48.428;11.974;2023-06-22T03:50:31;7.85;;;4.95;;
61322;SDS011;47203;48.428;11.974;2023-06-22T03:52:36;8.70;;;5.07;;
61322;SDS011;47203;48.428;11.974;2023-06-22T03:54:44;8.88;;;5.22;;
61322;SDS011;47203;48.428;11.974;2023-06-22T03:56:48;8.13;;;6.03;;
61322;SDS011;47203;48.428;11.974;2023-06-22T03:58:53;9.60;;;5.07;;
61322;SDS011;47203;48.428;11.974;2023-06-22T04:00:58;10.68;;;5.38;;
61322;SDS011;47203;48.428;11.974;2023-06-22T04:03:04;7.28;;;5.28;;
61322;SDS011;47203;48.428;11.974;2023-06-22T04:05:09;6.93;;;4.93;;
61322;SDS011;47203;48.428;11.974;2023-06-22T04:07:15;8.55;;;5.53;;
61322;SDS011;47203;48.428;11.974;2023-06-22T04:09:19;10.35;;;6.10;;
61322;SDS011;47203;48.428;11.974;2023-06-22T04:11:28;9.23;;;5.30;;
61322;SDS011;47203;48.428;11.974;2023-06-22T04:13:33;8.90;;;5.07;;
61322;SDS011;47203;48.428;11.974;2023-06-22T04:15:38;12.50;;;5.78;;
61322;SDS011;47203;48.428;11.974;2023-06-22T04:17:43;9.18;;;5.55;;
61322;SDS011;47203;48.428;11.974;2023-06-22T04:19:48;11.20;;;5.10;;
61322;SDS011;47203;48.428;11.974;2023-06-22T04:21:53;8.27;;;5.40;;
61322;SDS011;47203;48.428;11.974;2023-06-22T04:23:58;8.65;;;5.88;;
61322;SDS011;47203;48.428;11.974;2023-06-22T04:26:03;7.82;;;5.15;;
61322;SDS011;47203;48.428;11.974;2023-06-22T04:28:10;8.70;;;5.32;;
61322;SDS011;47203;48.428;11.974;2023-06-22T04:30:15;9.15;;;5.05;;
61322;SDS011;47203;48.428;11.974;2023-06-22T04:32:20;7.82;;;5.05;;
61322;SDS011;47203;48.428;11.974;2023-06-22T04:34:25;6.68;;;5.05;;
61322;SDS011;47203;48.428;11.974;2023-06-22T04:36:30;12.45;;;5.15;;
61322;SDS011;47203;48.428;11.974;2023-06-22T04:38:38;9.43;;;5.80;;
61322;SDS011;47203;48.428;11.974;2023-06-22T04:40:43;9.93;;;5.97;;
61322;SDS011;47203;48.428;11.974;2023-06-22T04:42:49;9.00;;;5.55;;
61322;SDS011;47203;48.428;11.974;2023-06-22T04:44:59;11.52;;;6.13;;
61322;SDS011;47203;48.428;11.974;2023-06-22T04:47:04;8.60;;;5.57;;
61322;SDS011;47203;48.428;11.974;2023-06-22T04:49:10;9.23;;;6.13;;
61322;SDS011;47203;48.428;11.974;2023-06-22T04:51:15;12.07;;;6.72;;
61322;SDS011;47203;48.428;11.974;2023-06-22T04:53:23;11.15;;;6.30;;
61322;SDS011;47203;48.428;11.974;2023-06-22T04:55:31;8.88;;;5.68;;
61322;SDS011;47203;48.428;11.974;2023-06-22T04:57:36;9.60;;;6.18;;
61322;SDS011;47203;48.428;11.974;2023-06-22T04:59:41;9.00;;;6.63;;
61322;SDS011;47203;48.428;11.974;2023-06-22T05:01:48;8.90;;;6.28;;
61322;SDS011;47203;48.428;11.974;2023-06-22T05:03:54;11.90;;;6.45;;
61322;SDS011;47203;48.428;11.974;2023-06-22T05:06:02;9.10;;;5.95;;
61322;SDS011;47203;48.428;11.974;2023-06-22T05:08:07;10.25;;;6.20;;
61322;SDS011;47203;48.428;11.974;2023-06-22T05:10:12;8.88;;;5.80;;
61322;SDS011;47203;48.428;11.974;2023-06-22T05:12:17;10.43;;;6.20;;
61322;SDS011;47203;48.428;11.974;2023-06-22T05:14:22;10.13;;;6.10;;
61322;SDS011;47203;48.428;11.974;2023-06-22T05:16:28;9.95;;;6.25;;
61322;SDS011;47203;48.428;11.974;2023-06-22T05:18:38;10.38;;;5.28;;
61322;SDS011;47203;48.428;11.974;2023-06-22T05:20:43;9.27;;;5.60;;
61322;SDS011;47203;48.428;11.974;2023-06-22T05:22:48;9.57;;;5.93;;
61322;SDS011;47203;48.428;11.974;2023-06-22T05:24:53;8.80;;;5.50;;
61322;SDS011;47203;48.428;11.974;2023-06-22T05:26:58;8.05;;;5.93;;
61322;SDS011;47203;48.428;11.974;2023-06-22T05:29:03;9.82;;;5.68;;
61322;SDS011;47203;48.428;11.974;2023-06-22T05:31:08;8.85;;;5.53;;
61322;SDS011;47203;48.428;11.974;2023-06-22T05:33:13;11.88;;;6.22;;
61322;SDS011;47203;48.428;11.974;2023-06-22T05:35:21;8.60;;;5.50;;
61322;SDS011;47203;48.428;11.974;2023-06-22T05:37:26;9.10;;;5.63;;
61322;SDS011;47203;48.428;11.974;2023-06-22T05:39:31;10.25;;;5.72;;
61322;SDS011;47203;48.428;11.974;2023-06-22T05:41:39;10.32;;;5.80;;
61322;SDS011;47203;48.428;11.974;2023-06-22T05:43:44;8.65;;;5.63;;
61322;SDS011;47203;48.428;11.974;2023-06-22T05:45:49;8.75;;;5.35;;
61322;SDS011;47203;48.428;11.974;2023-06-22T05:47:54;9.10;;;5.38;;
61322;SDS011;47203;48.428;11.974;2023-06-22T05:49:59;9.73;;;4.60;;
61322;SDS011;47203;48.428;11.974;2023-06-22T05:52:10;6.25;;;4.35;;
61322;SDS011;47203;48.428;11.974;2023-06-22T05:54:18;11.00;;;4.10;;
61322;SDS011;47203;48.428;11.974;2023-06-22T05:56:23;9.10;;;4.82;;
61322;SDS011;47203;48.428;11.974;2023-06-22T05:58:28;8.48;;;4.28;;
61322;SDS011;47203;48.428;11.974;2023-06-22T06:00:32;7.30;;;4.55;;
61322;SDS011;47203;48.428;11.974;2023-06-22T06:02:37;8.40;;;4.85;;
61322;SDS011;47203;48.428;11.974;2023-06-22T06:04:45;6.88;;;4.30;;
61322;SDS011;47203;48.428;11.974;2023-06-22T06:06:52;6.80;;;3.92;;
61322;SDS011;47203;48.428;11.974;2023-06-22T06:09:00;6.65;;;4.20;;
61322;SDS011;47203;48.428;11.974;2023-06-22T06:11:05;9.00;;;4.35;;
61322;SDS011;47203;48.428;11.974;2023-06-22T06:13:10;5.57;;;3.00;;
61322;SDS011;47203;48.428;11.974;2023-06-22T06:15:14;5.22;;;3.05;;
61322;SDS011;47203;48.428;11.974;2023-06-22T06:17:20;5.82;;;3.13;;
61322;SDS011;47203;48.428;11.974;2023-06-22T06:19:25;6.47;;;3.00;;
61322;SDS011;47203;48.428;11.974;2023-06-22T06:21:30;6.13;;;3.30;;
61322;SDS011;47203;48.428;11.974;2023-06-22T06:23:35;5.60;;;3.60;;
61322;SDS011;47203;48.428;11.974;2023-06-22T06:25:43;4.68;;;2.78;;
61322;SDS011;47203;48.428;11.974;2023-06-22T06:27:49;8.45;;;3.67;;
61322;SDS011;47203;48.428;11.974;2023-06-22T06:29:56;7.13;;;3.10;;
61322;SDS011;47203;48.428;11.974;2023-06-22T06:32:02;4.82;;;2.95;;
61322;SDS011;47203;48.428;11.974;2023-06-22T06:34:07;6.30;;;2.70;;
61322;SDS011;47203;48.428;11.974;2023-06-22T06:36:12;6.80;;;2.95;;
61322;SDS011;47203;48.428;11.974;2023-06-22T06:38:18;5.72;;;2.67;;
61322;SDS011;47203;48.428;11.974;2023-06-22T06:40:23;5.43;;;2.80;;
61322;SDS011;47203;48.428;11.974;2023-06-22T06:42:31;6.70;;;3.00;;
61322;SDS011;47203;48.428;11.974;2023-06-22T06:44:36;6.43;;;2.72;;
61322;SDS011;47203;48.428;11.974;2023-06-22T06:46:40;5.38;;;2.67;;
61322;SDS011;47203;48.428;11.974;2023-06-22T06:48:46;5.90;;;2.85;;
61322;SDS011;47203;48.428;11.974;2023-06-22T06:50:51;5.50;;;2.78;;
61322;SDS011;47203;48.428;11.974;2023-06-22T06:52:56;4.57;;;2.60;;
61322;SDS011;47203;48.428;11.974;2023-06-22T06:55:01;5.85;;;2.95;;
61322;SDS011;47203;48.428;11.974;2023-06-22T06:57:10;5.63;;;2.42;;
61322;SDS011;47203;48.428;11.974;2023-06-22T06:59:19;5.13;;;2.42;;
61322;SDS011;47203;48.428;11.974;2023-06-22T07:01:24;6.45;;;2.80;;
61322;SDS011;47203;48.428;11.974;2023-06-22T07:03:29;7.32;;;2.78;;
61322;SDS011;47203;48.428;11.974;2023-06-22T07:05:35;6.00;;;2.70;;
61322;SDS011;47203;48.428;11.974;2023-06-22T07:07:40;5.28;;;2.45;;
61322;SDS011;47203;48.428;11.974;2023-06-22T07:09:45;5.80;;;2.58;;
61322;SDS011;47203;48.428;11.974;2023-06-22T07:11:50;7.18;;;3.10;;
61322;SDS011;47203;48.428;11.974;2023-06-22T07:13:55;6.05;;;2.67;;
61322;SDS011;47203;48.428;11.974;2023-06-22T07:16:04;6.90;;;2.85;;
61322;SDS011;47203;48.428;11.974;2023-06-22T07:18:09;6.10;;;3.00;;
61322;SDS011;47203;48.428;11.974;2023-06-22T07:20:14;5.03;;;2.63;;
61322;SDS011;47203;48.428;11.974;2023-06-22T07:22:21;3.78;;;2.47;;
61322;SDS011;47203;48.428;11.974;2023-06-22T07:24:25;5.75;;;3.10;;
61322;SDS011;47203;48.428;11.974;2023-06-22T07:26:30;5.32;;;2.70;;
61322;SDS011;47203;48.428;11.974;2023-06-22T07:28:35;4.65;;;2.72;;
61322;SDS011;47203;48.428;11.974;2023-06-22T07:30:42;5.10;;;2.90;;
61322;SDS011;47203;48.428;11.974;2023-06-22T07:32:49;5.78;;;2.95;;
61322;SDS011;47203;48.428;11.974;2023-06-22T07:34:54;6.85;;;2.67;;
61322;SDS011;47203;48.428;11.974;2023-06-22T07:36:59;6.65;;;2.83;;
61322;SDS011;47203;48.428;11.974;2023-06-22T07:39:06;10.45;;;2.67;;
61322;SDS011;47203;48.428;11.974;2023-06-22T07:41:10;5.85;;;2.63;;
61322;SDS011;47203;48.428;11.974;2023-06-22T07:43:16;7.22;;;3.00;;
61322;SDS011;47203;48.428;11.974;2023-06-22T07:45:23;5.32;;;2.90;;
61322;SDS011;47203;48.428;11.974;2023-06-22T07:47:28;5.25;;;2.65;;
61322;SDS011;47203;48.428;11.974;2023-06-22T07:49:39;5.18;;;2.67;;
61322;SDS011;47203;48.428;11.974;2023-06-22T07:51:44;5.35;;;3.25;;
61322;SDS011;47203;48.428;11.974;2023-06-22T07:53:49;6.28;;;2.90;;
61322;SDS011;47203;48.428;11.974;2023-06-22T07:55:54;6.18;;;2.83;;
61322;SDS011;47203;48.428;11.974;2023-06-22T07:57:59;4.60;;;2.53;;
61322;SDS011;47203;48.428;11.974;2023-06-22T08:00:05;7.65;;;2.88;;
61322;SDS011;47203;48.428;11.974;2023-06-22T08:02:14;4.68;;;2.60;;
61322;SDS011;47203;48.428;11.974;2023-06-22T08:04:19;7.03;;;2.90;;
61322;SDS011;47203;48.428;11.974;2023-06-22T08:06:28;4.20;;;2.17;;
61322;SDS011;47203;48.428;11.974;2023-06-22T08:08:34;10.40;;;3.05;;
61322;SDS011;47203;48.428;11.974;2023-06-22T08:10:39;7.13;;;3.30;;
61322;SDS011;47203;48.428;11.974;2023-06-22T08:12:44;4.63;;;2.90;;
61322;SDS011;47203;48.428;11.974;2023-06-22T08:14:49;8.27;;;3.28;;
61322;SDS011;47203;48.428;11.974;2023-06-22T08:16:54;5.82;;;2.83;;
61322;SDS011;47203;48.428;11.974;2023-06-22T08:18:59;5.10;;;2.85;;
61322;SDS011;47203;48.428;11.974;2023-06-22T08:21:03;5.00;;;2.45;;
61322;SDS011;47203;48.428;11.974;2023-06-22T08:23:11;8.93;;;3.33;;
61322;SDS011;47203;48.428;11.974;2023-06-22T08:25:16;5.35;;;2.53;;
61322;SDS011;47203;48.428;11.974;2023-06-22T08:27:22;6.78;;;3.00;;
61322;SDS011;47203;48.428;11.974;2023-06-22T08:29:30;6.50;;;2.90;;
61322;SDS011;47203;48.428;11.974;2023-06-22T08:31:34;6.20;;;2.80;;
61322;SDS011;47203;48.428;11.974;2023-06-22T08:33:39;5.50;;;2.83;;
61322;SDS011;47203;48.428;11.974;2023-06-22T08:35:50;6.70;;;2.75;;
61322;SDS011;47203;48.428;11.974;2023-06-22T08:37:55;6.15;;;3.03;;
61322;SDS011;47203;48.428;11.974;2023-06-22T08:40:04;8.93;;;3.45;;
61322;SDS011;47203;48.428;11.974;2023-06-22T08:42:12;4.97;;;3.00;;
61322;SDS011;47203;48.428;11.974;2023-06-22T08:44:18;5.07;;;2.95;;
61322;SDS011;47203;48.428;11.974;2023-06-22T08:46:23;7.20;;;2.75;;
61322;SDS011;47203;48.428;11.974;2023-06-22T08:48:32;5.63;;;2.80;;
61322;SDS011;47203;48.428;11.974;2023-06-22T08:50:37;5.18;;;3.20;;
61322;SDS011;47203;48.428;11.974;2023-06-22T08:52:42;7.07;;;3.00;;
61322;SDS011;47203;48.428;11.974;2023-06-22T08:54:47;4.65;;;2.80;;
61322;SDS011;47203;48.428;11.974;2023-06-22T08:56:55;6.65;;;3.08;;
61322;SDS011;47203;48.428;11.974;2023-06-22T08:59:00;5.82;;;3.40;;
61322;SDS011;47203;48.428;11.974;2023-06-22T09:01:05;7.43;;;3.00;;
61322;SDS011;47203;48.428;11.974;2023-06-22T09:03:10;5.07;;;3.25;;
61322;SDS011;47203;48.428;11.974;2023-06-22T09:05:15;5.82;;;2.67;;
61322;SDS011;47203;48.428;11.974;2023-06-22T09:07:20;7.45;;;4.47;;
61322;SDS011;47203;48.428;11.974;2023-06-22T09:09:26;6.97;;;3.40;;
61322;SDS011;47203;48.428;11.974;2023-06-22T09:11:31;6.32;;;3.13;;
61322;SDS011;47203;48.428;11.974;2023-06-22T09:13:39;6.13;;;2.63;;
61322;SDS011;47203;48.428;11.974;2023-06-22T09:15:44;6.85;;;3.28;;
61322;SDS011;47203;48.428;11.974;2023-06-22T09:17:49;6.22;;;3.22;;
61322;SDS011;47203;48.428;11.974;2023-06-22T09:19:56;7.82;;;3.67;;
61322;SDS011;47203;48.428;11.974;2023-06-22T09:22:01;5.75;;;3.00;;
61322;SDS011;47203;48.428;11.974;2023-06-22T09:24:07;7.53;;;3.28;;
61322;SDS011;47203;48.428;11.974;2023-06-22T09:26:12;8.43;;;3.63;;
61322;SDS011;47203;48.428;11.974;2023-06-22T09:28:17;6.07;;;3.20;;
61322;SDS011;47203;48.428;11.974;2023-06-22T09:30:24;8.13;;;3.58;;
61322;SDS011;47203;48.428;11.974;2023-06-22T09:32:30;6.50;;;3.45;;
61322;SDS011;47203;48.428;11.974;2023-06-22T09:34:34;5.43;;;2.92;;
61322;SDS011;47203;48.428;11.974;2023-06-22T09:36:40;10.20;;;3.65;;
61322;SDS011;47203;48.428;11.974;2023-06-22T09:38:46;6.68;;;3.38;;
61322;SDS011;47203;48.428;11.974;2023-06-22T09:40:57;6.38;;;3.17;;
61322;SDS011;47203;48.428;11.974;2023-06-22T09:43:02;6.63;;;3.40;;
61322;SDS011;47203;48.428;11.974;2023-06-22T09:45:07;7.20;;;3.42;;
61322;SDS011;47203;48.428;11.974;2023-06-22T09:47:15;5.35;;;3.22;;
61322;SDS011;47203;48.428;11.974;2023-06-22T09:49:21;7.80;;;4.07;;
61322;SDS011;47203;48.428;11.974;2023-06-22T09:51:45;5.10;;;3.03;;
61322;SDS011;47203;48.428;11.974;2023-06-22T09:53:51;5.68;;;3.17;;
61322;SDS011;47203;48.428;11.974;2023-06-22T09:55:56;6.30;;;3.08;;
61322;SDS011;47203;48.428;11.974;2023-06-22T09:58:02;9.07;;;3.83;;
61322;SDS011;47203;48.428;11.974;2023-06-22T10:00:07;6.05;;;3.13;;
61322;SDS011;47203;48.428;11.974;2023-06-22T10:02:17;7.32;;;2.95;;
61322;SDS011;47203;48.428;11.974;2023-06-22T10:04:22;7.90;;;3.15;;
61322;SDS011;47203;48.428;11.974;2023-06-22T10:06:28;5.20;;;2.78;;
61322;SDS011;47203;48.428;11.974;2023-06-22T10:08:33;5.90;;;3.35;;
61322;SDS011;47203;48.428;11.974;2023-06-22T10:10:38;7.75;;;3.63;;
61322;SDS011;47203;48.428;11.974;2023-06-22T10:12:45;9.25;;;3.50;;
61322;SDS011;47203;48.428;11.974;2023-06-22T10:14:50;7.97;;;3.33;;
61322;SDS011;47203;48.428;11.974;2023-06-22T10:16:56;6.22;;;3.65;;
61322;SDS011;47203;48.428;11.974;2023-06-22T10:19:04;8.15;;;4.50;;
61322;SDS011;47203;48.428;11.974;2023-06-22T10:21:08;5.28;;;3.08;;
61322;SDS011;47203;48.428;11.974;2023-06-22T10:23:13;5.68;;;3.03;;
61322;SDS011;47203;48.428;11.974;2023-06-22T10:25:18;7.07;;;4.10;;
61322;SDS011;47203;48.428;11.974;2023-06-22T10:27:23;7.15;;;3.33;;
61322;SDS011;47203;48.428;11.974;2023-06-22T10:29:28;6.03;;;3.25;;
61322;SDS011;47203;48.428;11.974;2023-06-22T10:31:33;8.88;;;4.13;;
61322;SDS011;47203;48.428;11.974;2023-06-22T10:33:38;8.10;;;3.75;;
61322;SDS011;47203;48.428;11.974;2023-06-22T10:35:48;8.40;;;4.07;;
61322;SDS011;47203;48.428;11.974;2023-06-22T10:37:52;8.40;;;3.53;;
61322;SDS011;47203;48.428;11.974;2023-06-22T10:39:58;6.50;;;3.08;;
61322;SDS011;47203;48.428;11.974;2023-06-22T10:42:04;5.57;;;2.88;;
61322;SDS011;47203;48.428;11.974;2023-06-22T10:44:09;6.30;;;3.55;;
61322;SDS011;47203;48.428;11.974;2023-06-22T10:46:15;6.70;;;3.50;;
61322;SDS011;47203;48.428;11.974;2023-06-22T10:48:20;7.70;;;3.45;;
61322;SDS011;47203;48.428;11.974;2023-06-22T10:50:25;8.75;;;3.42;;
61322;SDS011;47203;48.428;11.974;2023-06-22T10:52:32;8.38;;;3.50;;
61322;SDS011;47203;48.428;11.974;2023-06-22T10:54:37;7.55;;;4.20;;
61322;SDS011;47203;48.428;11.974;2023-06-22T10:56:42;7.97;;;4.00;;
61322;SDS011;47203;48.428;11.974;2023-06-22T10:58:47;7.90;;;3.78;;
61322;SDS011;47203;48.428;11.974;2023-06-22T11:00:52;7.70;;;3.20;;
61322;SDS011;47203;48.428;11.974;2023-06-22T11:02:56;8.85;;;3.83;;
61322;SDS011;47203;48.428;11.974;2023-06-22T11:05:02;8.73;;;3.75;;
61322;SDS011;47203;48.428;11.974;2023-06-22T11:07:08;9.07;;;3.80;;
61322;SDS011;47203;48.428;11.974;2023-06-22T11:09:16;10.13;;;4.07;;
61322;SDS011;47203;48.428;11.974;2023-06-22T11:11:28;8.27;;;3.63;;
61322;SDS011;47203;48.428;11.974;2023-06-22T11:13:33;8.98;;;4.50;;
61322;SDS011;47203;48.428;11.974;2023-06-22T11:15:38;6.20;;;3.70;;
61322;SDS011;47203;48.428;11.974;2023-06-22T11:17:43;8.60;;;4.20;;
61322;SDS011;47203;48.428;11.974;2023-06-22T11:19:48;9.50;;;3.90;;
61322;SDS011;47203;48.428;11.974;2023-06-22T11:21:53;6.90;;;3.78;;
61322;SDS011;47203;48.428;11.974;2023-06-22T11:23:58;7.18;;;3.58;;
61322;SDS011;47203;48.428;11.974;2023-06-22T11:26:05;6.70;;;3.47;;
61322;SDS011;47203;48.428;11.974;2023-06-22T11:28:10;9.38;;;3.63;;
61322;SDS011;47203;48.428;11.974;2023-06-22T11:30:15;6.30;;;3.50;;
61322;SDS011;47203;48.428;11.974;2023-06-22T11:32:21;13.43;;;3.60;;
61322;SDS011;47203;48.428;11.974;2023-06-22T11:34:27;7.35;;;3.97;;
61322;SDS011;47203;48.428;11.974;2023-06-22T11:36:31;7.13;;;3.67;;
61322;SDS011;47203;48.428;11.974;2023-06-22T11:38:37;12.20;;;4.38;;
61322;SDS011;47203;48.428;11.974;2023-06-22T11:40:41;8.00;;;3.80;;
61322;SDS011;47203;48.428;11.974;2023-06-22T11:42:49;9.60;;;3.67;;
61322;SDS011;47203;48.428;11.974;2023-06-22T11:44:54;6.90;;;3.70;;
61322;SDS011;47203;48.428;11.974;2023-06-22T11:47:00;8.35;;;3.67;;
61322;SDS011;47203;48.428;11.974;2023-06-22T11:49:05;10.68;;;3.97;;
61322;SDS011;47203;48.428;11.974;2023-06-22T11:51:10;7.35;;;3.53;;
61322;SDS011;47203;48.428;11.974;2023-06-22T11:53:15;8.18;;;4.07;;
61322;SDS011;47203;48.428;11.974;2023-06-22T11:55:20;6.78;;;3.63;;
61322;SDS011;47203;48.428;11.974;2023-06-22T11:57:25;8.80;;;3.83;;
61322;SDS011;47203;48.428;11.974;2023-06-22T11:59:33;8.40;;;4.10;;
61322;SDS011;47203;48.428;11.974;2023-06-22T12:01:38;11.25;;;3.83;;
61322;SDS011;47203;48.428;11.974;2023-06-22T12:03:43;10.07;;;3.75;;
61322;SDS011;47203;48.428;11.974;2023-06-22T12:05:49;10.57;;;4.03;;
61322;SDS011;47203;48.428;11.974;2023-06-22T12:07:54;6.55;;;3.70;;
61322;SDS011;47203;48.428;11.974;2023-06-22T12:09:59;6.20;;;3.22;;
61322;SDS011;47203;48.428;11.974;2023-06-22T12:12:05;8.30;;;4.40;;
61322;SDS011;47203;48.428;11.974;2023-06-22T12:14:11;7.53;;;3.95;;
61322;SDS011;47203;48.428;11.974;2023-06-22T12:16:18;10.43;;;3.40;;
61322;SDS011;47203;48.428;11.974;2023-06-22T12:18:23;7.40;;;3.90;;
61322;SDS011;47203;48.428;11.974;2023-06-22T12:20:28;9.00;;;4.05;;
61322;SDS011;47203;48.428;11.974;2023-06-22T12:22:33;7.85;;;3.42;;
61322;SDS011;47203;48.428;11.974;2023-06-22T12:24:39;8.88;;;4.38;;
61322;SDS011;47203;48.428;11.974;2023-06-22T12:26:44;6.22;;;3.53;;
61322;SDS011;47203;48.428;11.974;2023-06-22T12:28:49;10.27;;;4.22;;
61322;SDS011;47203;48.428;11.974;2023-06-22T12:30:54;6.95;;;3.53;;